createdAt,value
2023-03-20T00:02:22.597Z,41.58
2023-03-20T00:04:50.418Z,37.83
2023-03-20T00:07:17.443Z,34.78
2023-03-20T00:09:44.759Z,40.00
2023-03-20T00:12:26.367Z,37.40
2023-03-20T00:14:53.968Z,33.67
2023-03-20T00:17:21.461Z,35.40
2023-03-20T00:19:49.542Z,36.30
2023-03-20T00:22:16.688Z,37.20
2023-03-20T00:24:44.103Z,36.80
2023-03-20T00:27:15.757Z,42.10
2023-03-20T00:29:44.441Z,39.05
2023-03-20T00:32:13.521Z,45.67
2023-03-20T00:34:41.542Z,38.13
2023-03-20T00:37:09.768Z,39.85
2023-03-20T00:39:36.995Z,37.25
2023-03-20T00:42:06.638Z,39.70
2023-03-20T00:44:41.459Z,44.67
2023-03-20T00:47:23.279Z,41.92
2023-03-20T00:49:54.500Z,42.03
2023-03-20T00:52:22.760Z,42.75
2023-03-20T00:54:52.636Z,43.53
2023-03-20T00:57:26.544Z,43.83
2023-03-20T01:00:06.806Z,38.55
2023-03-20T01:02:34.611Z,39.75
2023-03-20T01:05:05.536Z,41.10
2023-03-20T01:07:32.570Z,38.40
2023-03-20T01:09:59.893Z,43.40
2023-03-20T01:12:28.261Z,38.63
2023-03-20T01:14:58.481Z,36.92
2023-03-20T01:17:28.231Z,42.03
2023-03-20T01:19:55.820Z,40.50
2023-03-20T01:22:23.426Z,37.20
2023-03-20T01:24:50.880Z,40.08
2023-03-20T01:27:20.271Z,37.28
2023-03-20T01:29:47.972Z,36.08
2023-03-20T01:32:19.995Z,36.70
2023-03-20T01:34:53.139Z,37.90
2023-03-20T01:37:27.563Z,38.22
2023-03-20T01:39:58.400Z,34.92
2023-03-20T01:42:26.284Z,35.67
2023-03-20T01:44:53.630Z,35.88
2023-03-20T01:47:25.875Z,35.97
2023-03-20T01:50:23.931Z,38.65
2023-03-20T01:53:12.004Z,36.40
2023-03-20T01:55:47.103Z,34.58
2023-03-20T01:58:31.563Z,32.28
2023-03-20T02:01:00.114Z,32.63
2023-03-20T02:03:27.452Z,34.28
2023-03-20T02:06:13.340Z,37.08
2023-03-20T02:09:12.093Z,33.50
2023-03-20T02:11:46.279Z,36.20
2023-03-20T02:14:14.975Z,30.67
2023-03-20T02:17:08.649Z,35.50
2023-03-20T02:20:30.045Z,38.05
2023-03-20T02:23:29.592Z,34.33
2023-03-20T02:26:28.159Z,32.63
2023-03-20T02:29:23.783Z,35.35
2023-03-20T02:32:25.007Z,34.65
2023-03-20T02:35:28.362Z,33.58
2023-03-20T02:41:25.200Z,33.10
2023-03-20T02:44:22.883Z,33.85
2023-03-20T02:47:00.068Z,38.28
2023-03-20T02:50:01.341Z,32.85
2023-03-20T02:53:09.794Z,34.22
2023-03-20T02:55:44.008Z,34.60
2023-03-20T02:58:32.243Z,32.35
2023-03-20T03:01:11.997Z,33.78
2023-03-20T03:03:48.543Z,32.42
2023-03-20T03:06:28.074Z,38.00
2023-03-20T03:09:05.659Z,33.13
2023-03-20T03:11:45.010Z,33.13
2023-03-20T03:14:24.389Z,31.70
2023-03-20T03:16:54.176Z,34.05
2023-03-20T03:19:27.985Z,33.53
2023-03-20T03:21:55.562Z,31.50
2023-03-20T03:24:41.419Z,34.25
2023-03-20T03:27:29.494Z,32.70
2023-03-20T03:30:27.999Z,31.48
2023-03-20T03:33:37.221Z,32.28
2023-03-20T03:36:31.358Z,34.88
2023-03-20T03:39:24.595Z,30.63
2023-03-20T03:42:25.035Z,32.30
2023-03-20T03:45:14.721Z,36.55
2023-03-20T03:47:55.854Z,31.45
2023-03-20T03:50:48.901Z,29.42
2023-03-20T03:53:32.874Z,33.15
2023-03-20T03:56:06.843Z,33.67
2023-03-20T03:58:43.953Z,34.97
2023-03-20T04:01:14.360Z,35.42
2023-03-20T04:03:58.269Z,33.10
2023-03-20T04:06:27.532Z,34.53
2023-03-20T04:08:55.205Z,32.83
2023-03-20T04:11:25.988Z,30.95
2023-03-20T04:13:53.491Z,31.63
2023-03-20T04:16:23.554Z,30.90
2023-03-20T04:18:52.306Z,29.27
2023-03-20T04:21:19.918Z,29.30
2023-03-20T04:23:47.439Z,29.67
2023-03-20T04:26:15.020Z,31.48
2023-03-20T04:28:42.404Z,30.13
2023-03-20T04:31:28.649Z,28.08
2023-03-20T04:34:18.075Z,29.35
2023-03-20T04:37:00.930Z,29.83
2023-03-20T04:39:42.954Z,30.45
2023-03-20T04:42:11.722Z,32.65
2023-03-20T04:44:38.891Z,28.00
2023-03-20T04:47:06.524Z,31.38
2023-03-20T04:49:36.551Z,31.35
2023-03-20T04:52:04.116Z,31.83
2023-03-20T04:54:41.210Z,26.92
2023-03-20T04:57:08.316Z,34.47
2023-03-20T04:59:36.664Z,35.75
2023-03-20T05:02:04.074Z,28.95
2023-03-20T05:04:31.350Z,30.83
2023-03-20T05:06:58.522Z,29.65
2023-03-20T05:09:32.880Z,31.58
2023-03-20T05:12:03.112Z,31.15
2023-03-20T05:14:49.082Z,33.75
2023-03-20T05:17:37.075Z,31.90
2023-03-20T05:20:30.836Z,33.80
2023-03-20T05:23:07.593Z,35.70
2023-03-20T05:25:55.640Z,32.17
2023-03-20T05:28:41.477Z,29.85
2023-03-20T05:31:23.867Z,31.33
2023-03-20T05:34:00.268Z,29.20
2023-03-20T05:36:42.851Z,28.20
2023-03-20T05:39:32.179Z,29.67
2023-03-20T05:42:19.870Z,31.20
2023-03-20T05:45:17.393Z,32.80
2023-03-20T05:48:03.523Z,30.13
2023-03-20T05:50:36.509Z,31.52
2023-03-20T05:53:38.982Z,31.08
2023-03-20T05:56:25.979Z,30.50
2023-03-20T05:59:12.643Z,34.17
2023-03-20T06:02:00.502Z,31.05
2023-03-20T06:04:34.994Z,30.30
2023-03-20T06:07:16.781Z,30.38
2023-03-20T06:09:49.174Z,32.80
2023-03-20T06:12:17.103Z,31.17
2023-03-20T06:14:44.280Z,34.15
2023-03-20T06:17:12.259Z,33.40
2023-03-20T06:19:39.532Z,31.60
2023-03-20T06:22:06.678Z,33.50
2023-03-20T06:24:35.385Z,32.33
2023-03-20T06:27:02.386Z,29.77
2023-03-20T06:29:30.252Z,33.22
2023-03-20T06:32:09.332Z,31.70
2023-03-20T06:34:37.509Z,31.55
2023-03-20T06:37:04.493Z,33.00
2023-03-20T06:39:33.094Z,33.97
2023-03-20T06:42:00.274Z,32.55
2023-03-20T06:44:28.724Z,34.35
2023-03-20T06:49:39.239Z,37.65
2023-03-20T06:52:10.386Z,38.55
2023-03-20T06:54:38.504Z,39.28
2023-03-20T06:57:05.435Z,41.33
2023-03-20T06:59:32.688Z,42.80
2023-03-20T07:02:00.177Z,43.45
2023-03-20T07:04:27.976Z,38.97
2023-03-20T07:06:59.035Z,43.50
2023-03-20T07:09:26.888Z,37.35
2023-03-20T07:11:54.397Z,41.63
2023-03-20T07:14:23.122Z,41.83
2023-03-20T07:17:03.696Z,42.03
2023-03-20T07:19:33.231Z,45.95
2023-03-20T07:22:04.672Z,46.42
2023-03-20T07:24:38.299Z,43.17
2023-03-20T07:27:05.435Z,48.40
2023-03-20T07:29:34.641Z,43.67
2023-03-20T07:32:04.062Z,48.78
2023-03-20T07:34:36.811Z,44.07
2023-03-20T07:37:04.984Z,40.00
2023-03-20T07:39:33.855Z,41.83
2023-03-20T07:42:21.081Z,39.60
2023-03-20T07:44:58.530Z,40.72
2023-03-20T07:47:25.962Z,39.67
2023-03-20T07:49:53.447Z,41.45
2023-03-20T07:52:20.447Z,40.05
2023-03-20T07:54:47.851Z,39.03
2023-03-20T07:57:14.860Z,38.03
2023-03-20T07:59:42.082Z,38.33
2023-03-20T08:02:16.215Z,34.92
2023-03-20T08:04:44.993Z,37.42
2023-03-20T08:07:12.690Z,36.13
2023-03-20T08:09:40.398Z,35.30
2023-03-20T08:12:07.619Z,35.90
2023-03-20T08:14:35.260Z,35.80
2023-03-20T08:17:14.398Z,36.47
2023-03-20T08:19:42.420Z,45.40
2023-03-20T08:22:09.750Z,39.05
2023-03-20T08:24:37.092Z,35.33
2023-03-20T08:27:04.546Z,35.33
2023-03-20T08:29:31.938Z,37.38
2023-03-20T08:31:58.980Z,33.65
2023-03-20T08:34:26.385Z,32.08
2023-03-20T08:36:53.647Z,35.05
2023-03-20T08:39:21.862Z,29.10
2023-03-20T08:41:48.771Z,35.10
2023-03-20T08:44:17.219Z,37.25
2023-03-20T08:46:46.246Z,33.00
2023-03-20T08:49:14.117Z,33.92
2023-03-20T08:51:41.384Z,28.25
2023-03-20T08:54:08.832Z,29.52
2023-03-20T08:56:35.863Z,31.35
2023-03-20T08:59:03.712Z,27.40
2023-03-20T09:01:46.260Z,27.73
2023-03-20T09:04:15.960Z,28.50
2023-03-20T09:06:42.862Z,26.63
2023-03-20T09:09:10.573Z,28.13
2023-03-20T09:11:37.694Z,20.40
2023-03-20T09:14:04.957Z,26.48
2023-03-20T09:16:31.983Z,30.85
2023-03-20T09:18:59.407Z,30.65
2023-03-20T09:21:26.434Z,29.33
2023-03-20T09:23:53.668Z,24.45
2023-03-20T09:26:20.695Z,24.85
2023-03-20T09:28:47.980Z,22.75
2023-03-20T09:31:15.478Z,24.92
2023-03-20T09:33:42.837Z,20.35
2023-03-20T09:36:11.821Z,23.05
2023-03-20T09:38:41.910Z,23.58
2023-03-20T09:41:45.880Z,22.15
2023-03-20T09:44:45.986Z,22.27
2023-03-20T09:47:38.492Z,22.23
2023-03-20T09:50:42.381Z,20.48
2023-03-20T09:53:33.611Z,20.48
2023-03-20T09:56:04.404Z,21.35
2023-03-20T09:58:37.644Z,19.92
2023-03-20T10:01:11.570Z,21.23
2023-03-20T10:03:55.707Z,19.85
2023-03-20T10:06:23.433Z,21.65
2023-03-20T10:08:51.884Z,20.08
2023-03-20T10:11:34.532Z,19.00
2023-03-20T10:14:40.752Z,20.55
2023-03-20T10:17:39.860Z,19.75
2023-03-20T10:20:33.396Z,20.45
2023-03-20T10:23:33.196Z,23.63
2023-03-20T10:26:10.193Z,23.10
2023-03-20T10:28:53.987Z,19.63
2023-03-20T10:32:12.528Z,19.10
2023-03-20T10:35:04.448Z,20.70
2023-03-20T10:38:06.731Z,18.15
2023-03-20T10:40:39.411Z,21.10
2023-03-20T10:45:57.327Z,17.80
2023-03-20T10:48:44.291Z,20.10
2023-03-20T10:51:19.933Z,17.40
2023-03-20T10:53:56.969Z,17.83
2023-03-20T10:56:42.167Z,19.92
2023-03-20T10:59:26.193Z,17.60
2023-03-20T11:01:54.015Z,19.13
2023-03-20T11:04:21.637Z,20.02
2023-03-20T11:07:06.463Z,20.20
2023-03-20T11:09:33.888Z,18.48
2023-03-20T11:12:03.040Z,19.10
2023-03-20T11:14:39.308Z,25.75
2023-03-20T11:17:07.209Z,32.63
2023-03-20T11:19:37.640Z,32.05
2023-03-20T11:22:26.600Z,31.40
2023-03-20T11:25:03.915Z,32.08
2023-03-20T11:27:34.935Z,24.33
2023-03-20T11:30:15.778Z,22.55
2023-03-20T11:32:54.830Z,22.92
2023-03-20T11:35:27.478Z,20.02
2023-03-20T11:38:13.676Z,18.83
2023-03-20T11:40:41.286Z,17.67
2023-03-20T11:43:18.592Z,18.00
2023-03-20T11:45:54.165Z,20.20
2023-03-20T11:48:26.548Z,18.83
2023-03-20T11:51:07.274Z,18.17
2023-03-20T11:53:49.879Z,17.60
2023-03-20T11:56:30.284Z,19.50
2023-03-20T11:59:06.860Z,19.45
2023-03-20T12:01:48.924Z,18.45
2023-03-20T12:04:31.811Z,19.95
2023-03-20T12:09:54.720Z,19.30
2023-03-20T12:12:37.499Z,24.95
2023-03-20T12:15:34.209Z,24.33
2023-03-20T12:18:14.330Z,22.50
2023-03-20T12:21:17.898Z,22.02
2023-03-20T12:23:56.985Z,22.33
2023-03-20T12:27:01.392Z,18.05
2023-03-20T12:29:54.611Z,20.33
2023-03-20T12:32:46.366Z,20.40
2023-03-20T12:35:27.785Z,18.90
2023-03-20T12:37:55.396Z,20.00
2023-03-20T12:40:37.595Z,20.00
2023-03-20T12:43:27.495Z,19.10
2023-03-20T12:46:20.867Z,19.35
2023-03-20T12:49:12.941Z,19.05
2023-03-20T12:52:23.388Z,17.57
2023-03-20T12:55:26.263Z,19.98
2023-03-20T12:58:17.229Z,18.35
2023-03-20T13:01:00.010Z,16.65
2023-03-20T13:04:24.645Z,20.77
2023-03-20T13:06:56.382Z,17.08
2023-03-20T13:10:09.094Z,17.27
2023-03-20T13:13:18.431Z,19.23
2023-03-20T13:16:14.352Z,18.17
2023-03-20T13:19:07.887Z,20.83
2023-03-20T13:21:56.659Z,24.80
2023-03-20T13:25:13.721Z,19.88
2023-03-20T13:27:52.221Z,20.80
2023-03-20T13:30:56.736Z,19.00
2023-03-20T13:34:00.947Z,22.08
2023-03-20T13:37:23.908Z,16.98
2023-03-20T13:40:14.291Z,16.17
2023-03-20T13:42:51.039Z,14.82
2023-03-20T13:45:41.350Z,14.68
2023-03-20T13:48:26.673Z,14.10
2023-03-20T13:51:19.395Z,13.70
2023-03-20T13:54:08.409Z,16.73
2023-03-20T13:56:51.333Z,16.10
2023-03-20T14:00:01.248Z,17.98
2023-03-20T14:02:50.752Z,16.05
2023-03-20T14:05:23.281Z,15.18
2023-03-20T14:10:24.045Z,14.23
2023-03-20T14:13:01.985Z,14.55
2023-03-20T14:15:38.677Z,13.43
2023-03-20T14:18:17.574Z,13.07
2023-03-20T14:21:02.976Z,13.18
2023-03-20T14:23:40.046Z,13.32
2023-03-20T14:26:23.491Z,14.45
2023-03-20T14:29:21.034Z,11.52
2023-03-20T14:31:52.245Z,14.50
2023-03-20T14:34:24.709Z,14.15
2023-03-20T14:37:27.189Z,15.32
2023-03-20T14:40:22.412Z,13.48
2023-03-20T14:43:14.093Z,14.80
2023-03-20T14:46:08.380Z,16.83
2023-03-20T14:48:45.880Z,15.63
2023-03-20T14:51:39.382Z,14.95
2023-03-20T14:58:43.703Z,16.73
2023-03-20T15:01:22.304Z,15.57
2023-03-20T15:03:57.609Z,14.85
2023-03-20T15:06:29.077Z,15.57
2023-03-20T15:09:08.766Z,16.75
2023-03-20T15:11:38.182Z,15.20
2023-03-20T15:14:10.293Z,16.63
2023-03-20T15:19:20.447Z,15.15
2023-03-20T15:21:49.463Z,16.63
2023-03-20T15:24:29.792Z,14.55
2023-03-20T15:27:01.969Z,15.68
2023-03-20T15:29:33.130Z,15.48
2023-03-20T15:32:14.102Z,11.93
2023-03-20T15:34:44.429Z,15.02
2023-03-20T15:37:17.429Z,13.75
2023-03-20T15:39:56.890Z,16.23
2023-03-20T15:42:27.942Z,14.05
2023-03-20T15:44:56.771Z,13.90
2023-03-20T15:47:26.210Z,15.70
2023-03-20T15:50:01.056Z,17.05
2023-03-20T15:52:39.189Z,16.83
2023-03-20T15:55:16.285Z,15.60
2023-03-20T15:57:59.747Z,17.15
2023-03-20T16:00:31.973Z,19.08
2023-03-20T16:03:05.251Z,19.98
2023-03-20T16:05:33.356Z,15.80
2023-03-20T16:08:27.136Z,18.25
2023-03-20T16:11:05.978Z,17.00
2023-03-20T16:13:42.390Z,18.15
2023-03-20T16:16:17.831Z,17.25
2023-03-20T16:18:49.787Z,20.73
2023-03-20T16:21:30.610Z,16.85
2023-03-20T16:24:02.315Z,18.98
2023-03-20T16:26:29.794Z,18.20
2023-03-20T16:29:05.247Z,19.67
2023-03-20T16:31:36.206Z,19.35
2023-03-20T16:34:21.677Z,18.45
2023-03-20T16:37:00.143Z,16.23
2023-03-20T16:39:31.501Z,17.63
2023-03-20T16:42:12.000Z,19.23
2023-03-20T16:44:42.284Z,16.27
2023-03-20T16:47:21.605Z,15.85
2023-03-20T16:50:06.725Z,14.77
2023-03-20T16:52:40.388Z,15.48
2023-03-20T16:55:17.724Z,15.75
2023-03-20T16:57:50.554Z,14.93
2023-03-20T17:00:30.127Z,15.43
2023-03-20T17:03:26.292Z,17.52
2023-03-20T17:06:27.338Z,15.95
2023-03-20T17:09:20.781Z,16.25
2023-03-20T17:11:57.827Z,19.08
2023-03-20T17:14:25.751Z,20.25
2023-03-20T17:16:55.526Z,21.85
2023-03-20T17:19:24.637Z,22.60
2023-03-20T17:21:53.316Z,25.73
2023-03-20T17:24:21.496Z,26.20
2023-03-20T17:26:56.778Z,24.52
2023-03-20T17:29:24.428Z,25.33
2023-03-20T17:31:52.746Z,24.08
2023-03-20T17:34:20.443Z,20.90
2023-03-20T17:36:49.099Z,23.95
2023-03-20T17:39:21.750Z,25.08
2023-03-20T17:41:49.727Z,24.02
2023-03-20T17:44:26.341Z,21.75
2023-03-20T17:46:58.912Z,23.25
2023-03-20T17:49:27.746Z,22.75
2023-03-20T17:51:56.712Z,23.58
2023-03-20T17:54:23.948Z,24.77
2023-03-20T17:56:52.028Z,22.80
2023-03-20T17:59:20.145Z,26.52
2023-03-20T18:01:48.327Z,29.73
2023-03-20T18:04:16.248Z,28.35
2023-03-20T18:06:44.485Z,28.95
2023-03-20T18:09:14.874Z,28.15
2023-03-20T18:11:43.017Z,28.77
2023-03-20T18:14:12.491Z,31.95
2023-03-20T18:16:40.733Z,27.13
2023-03-20T18:19:29.484Z,28.60
2023-03-20T18:21:58.100Z,27.15
2023-03-20T18:24:26.474Z,26.50
2023-03-20T18:27:18.890Z,24.63
2023-03-20T18:29:46.157Z,24.75
2023-03-20T18:32:13.974Z,23.60
2023-03-20T18:34:42.071Z,23.13
2023-03-20T18:37:14.711Z,21.52
2023-03-20T18:39:41.910Z,22.73
2023-03-20T18:42:09.591Z,22.23
2023-03-20T18:44:37.146Z,18.60
2023-03-20T18:47:05.056Z,21.75
2023-03-20T18:49:38.831Z,19.23
2023-03-20T18:52:07.177Z,20.35
2023-03-20T18:54:34.867Z,19.15
2023-03-20T18:57:02.621Z,17.92
2023-03-20T18:59:30.073Z,17.02
2023-03-20T19:01:57.734Z,17.20
2023-03-20T19:04:32.469Z,18.13
2023-03-20T19:07:00.347Z,17.40
2023-03-20T19:09:27.612Z,14.80
2023-03-20T19:11:55.650Z,16.23
2023-03-20T19:14:23.814Z,18.58
2023-03-20T19:16:51.738Z,16.77
2023-03-20T19:19:19.073Z,19.05
2023-03-20T19:21:46.563Z,18.63
2023-03-20T19:24:13.766Z,19.10
2023-03-20T19:26:42.245Z,22.52
2023-03-20T19:29:14.087Z,23.63
2023-03-20T19:31:41.680Z,25.13
2023-03-20T19:34:36.791Z,25.95
2023-03-20T19:37:00.530Z,28.42
2023-03-20T19:39:27.695Z,29.02
2023-03-20T19:41:55.947Z,30.52
2023-03-20T19:44:23.686Z,33.25
2023-03-20T19:46:51.780Z,33.25
2023-03-20T19:49:33.207Z,35.55
2023-03-20T19:52:00.873Z,33.67
2023-03-20T19:54:28.605Z,33.28
2023-03-20T19:57:00.456Z,38.30
2023-03-20T19:59:29.120Z,40.22
2023-03-20T20:01:58.928Z,34.40
2023-03-20T20:04:27.021Z,36.05
2023-03-20T20:07:40.778Z,38.72
2023-03-20T20:09:48.181Z,32.17
2023-03-20T20:12:17.378Z,33.97
2023-03-20T20:14:44.764Z,33.00
2023-03-20T20:17:12.567Z,28.88
2023-03-20T20:19:54.389Z,35.22
2023-03-20T20:22:26.040Z,28.40
2023-03-20T20:24:54.804Z,32.53
2023-03-20T20:27:22.572Z,34.85
2023-03-20T20:29:53.274Z,33.38
2023-03-20T20:32:26.651Z,34.87
2023-03-20T20:40:32.335Z,31.13
2023-03-20T20:43:02.483Z,32.80
2023-03-20T20:45:34.655Z,30.15
2023-03-20T20:48:09.513Z,30.20
2023-03-20T20:50:36.862Z,32.70
2023-03-20T20:53:05.315Z,32.78
2023-03-20T20:55:32.830Z,31.05
2023-03-20T20:58:01.366Z,30.08
2023-03-20T21:00:48.526Z,32.38
2023-03-20T21:03:16.800Z,34.63
2023-03-20T21:05:44.460Z,33.05
2023-03-20T21:08:14.127Z,30.45
2023-03-20T21:10:45.358Z,31.45
2023-03-20T21:13:13.127Z,35.40
2023-03-20T21:15:42.207Z,31.10
2023-03-20T21:18:21.650Z,32.72
2023-03-20T21:20:49.445Z,29.63
2023-03-20T21:23:16.924Z,33.58
2023-03-20T21:25:47.728Z,27.77
2023-03-20T21:28:15.821Z,29.10
2023-03-20T21:31:05.957Z,31.42
2023-03-20T21:33:34.080Z,30.90
2023-03-20T21:36:03.125Z,32.53
2023-03-20T21:39:06.000Z,38.42
2023-03-20T21:41:19.355Z,39.05
2023-03-20T21:43:47.739Z,39.20
2023-03-20T21:58:17.535Z,55.78
2023-03-20T22:03:23.161Z,58.08
2023-03-20T22:17:55.930Z,52.45
2023-03-20T22:23:43.412Z,42.03
2023-03-20T22:29:35.119Z,33.05
2023-03-20T22:38:00.495Z,30.35
2023-03-20T22:40:48.837Z,25.10
2023-03-20T22:43:50.760Z,25.38
2023-03-20T22:46:05.651Z,22.95
2023-03-20T22:48:40.819Z,19.02
2023-03-20T22:51:08.976Z,21.10
2023-03-20T22:53:36.977Z,20.15
2023-03-20T22:56:04.864Z,20.05
2023-03-20T22:58:33.590Z,19.92
2023-03-20T23:01:02.959Z,16.63
2023-03-20T23:03:41.445Z,19.60
2023-03-20T23:06:28.675Z,17.55
2023-03-20T23:08:59.660Z,16.15
2023-03-20T23:11:30.996Z,19.38
2023-03-20T23:14:00.842Z,16.25
2023-03-20T23:16:28.144Z,18.92
2023-03-20T23:18:56.899Z,15.68
2023-03-20T23:21:25.692Z,16.10
2023-03-20T23:23:53.877Z,14.75
2023-03-20T23:26:22.296Z,15.23
2023-03-20T23:28:53.420Z,17.38
2023-03-20T23:31:25.577Z,14.98
2023-03-20T23:33:58.102Z,16.05
2023-03-20T23:36:36.761Z,15.70
2023-03-20T23:39:10.220Z,15.18
2023-03-20T23:44:26.543Z,14.15
2023-03-20T23:46:55.626Z,14.93
2023-03-20T23:49:23.961Z,13.38
2023-03-20T23:51:51.339Z,13.50
2023-03-20T23:54:19.634Z,12.70
2023-03-20T23:56:47.753Z,13.20
2023-03-20T23:59:21.466Z,13.43
